sensor_id;sensor_type;location;lat;lon;timestamp;temperature;humidity
67192;HTU21D;54120;53.504;49.426;2022-08-03T00:00:14;17.76;77.86
67192;HTU21D;54120;53.504;49.426;2022-08-03T00:02:41;17.69;78.39
67192;HTU21D;54120;53.504;49.426;2022-08-03T00:05:07;17.67;78.07
67192;HTU21D;54120;53.504;49.426;2022-08-03T00:07:34;17.56;78.63
67192;HTU21D;54120;53.504;49.426;2022-08-03T00:10:00;17.45;79.10
67192;HTU21D;54120;53.504;49.426;2022-08-03T00:12:26;17.35;79.59
67192;HTU21D;54120;53.504;49.426;2022-08-03T00:14:52;17.30;80.14
67192;HTU21D;54120;53.504;49.426;2022-08-03T00:17:18;17.32;80.12
67192;HTU21D;54120;53.504;49.426;2022-08-03T00:19:45;17.47;79.29
67192;HTU21D;54120;53.504;49.426;2022-08-03T00:22:11;17.58;78.74
67192;HTU21D;54120;53.504;49.426;2022-08-03T00:24:37;17.55;78.83
67192;HTU21D;54120;53.504;49.426;2022-08-03T00:27:04;17.53;78.89
67192;HTU21D;54120;53.504;49.426;2022-08-03T00:29:30;17.55;78.93
67192;HTU21D;54120;53.504;49.426;2022-08-03T00:31:56;17.62;78.56
67192;HTU21D;54120;53.504;49.426;2022-08-03T00:34:22;17.64;78.53
67192;HTU21D;54120;53.504;49.426;2022-08-03T00:36:48;17.70;78.29
67192;HTU21D;54120;53.504;49.426;2022-08-03T00:39:14;17.77;77.95
67192;HTU21D;54120;53.504;49.426;2022-08-03T00:41:40;17.73;78.18
67192;HTU21D;54120;53.504;49.426;2022-08-03T00:44:07;17.68;78.40
67192;HTU21D;54120;53.504;49.426;2022-08-03T00:46:33;17.50;79.60
67192;HTU21D;54120;53.504;49.426;2022-08-03T00:48:59;17.52;79.27
67192;HTU21D;54120;53.504;49.426;2022-08-03T00:51:25;17.47;79.47
67192;HTU21D;54120;53.504;49.426;2022-08-03T00:53:51;17.41;79.83
67192;HTU21D;54120;53.504;49.426;2022-08-03T00:56:18;17.34;80.20
67192;HTU21D;54120;53.504;49.426;2022-08-03T00:58:45;17.37;80.24
67192;HTU21D;54120;53.504;49.426;2022-08-03T01:01:12;17.47;79.70
67192;HTU21D;54120;53.504;49.426;2022-08-03T01:03:39;17.44;79.81
67192;HTU21D;54120;53.504;49.426;2022-08-03T01:06:15;17.39;80.02
67192;HTU21D;54120;53.504;49.426;2022-08-03T01:08:57;17.41;79.91
67192;HTU21D;54120;53.504;49.426;2022-08-03T01:11:34;17.45;79.85
67192;HTU21D;54120;53.504;49.426;2022-08-03T01:14:12;17.43;79.84
67192;HTU21D;54120;53.504;49.426;2022-08-03T01:22:22;17.58;79.17
67192;HTU21D;54120;53.504;49.426;2022-08-03T01:27:35;17.60;79.17
67192;HTU21D;54120;53.504;49.426;2022-08-03T01:30:09;17.93;77.64
67192;HTU21D;54120;53.504;49.426;2022-08-03T01:32:47;17.90;77.95
67192;HTU21D;54120;53.504;49.426;2022-08-03T01:35:43;17.92;77.78
67192;HTU21D;54120;53.504;49.426;2022-08-03T01:38:18;17.95;77.63
67192;HTU21D;54120;53.504;49.426;2022-08-03T01:40:47;17.96;77.52
67192;HTU21D;54120;53.504;49.426;2022-08-03T01:43:15;18.00;77.32
67192;HTU21D;54120;53.504;49.426;2022-08-03T01:45:43;18.04;77.22
67192;HTU21D;54120;53.504;49.426;2022-08-03T01:48:11;18.05;77.22
67192;HTU21D;54120;53.504;49.426;2022-08-03T01:50:41;18.21;76.52
67192;HTU21D;54120;53.504;49.426;2022-08-03T01:53:08;18.73;74.49
67192;HTU21D;54120;53.504;49.426;2022-08-03T01:55:36;20.18;69.20
67192;HTU21D;54120;53.504;49.426;2022-08-03T01:58:03;21.23;64.57
67192;HTU21D;54120;53.504;49.426;2022-08-03T02:00:33;21.61;62.95
67192;HTU21D;54120;53.504;49.426;2022-08-03T02:03:01;21.82;62.28
67192;HTU21D;54120;53.504;49.426;2022-08-03T02:05:30;22.32;60.60
67192;HTU21D;54120;53.504;49.426;2022-08-03T02:07:57;23.46;56.90
67192;HTU21D;54120;53.504;49.426;2022-08-03T02:10:26;23.85;55.52
67192;HTU21D;54120;53.504;49.426;2022-08-03T02:12:54;23.94;55.42
67192;HTU21D;54120;53.504;49.426;2022-08-03T02:15:23;24.53;53.43
67192;HTU21D;54120;53.504;49.426;2022-08-03T02:17:50;24.95;52.45
67192;HTU21D;54120;53.504;49.426;2022-08-03T02:20:18;25.36;51.02
67192;HTU21D;54120;53.504;49.426;2022-08-03T02:22:45;25.54;50.65
67192;HTU21D;54120;53.504;49.426;2022-08-03T02:25:14;25.92;49.48
67192;HTU21D;54120;53.504;49.426;2022-08-03T02:28:01;24.99;52.45
67192;HTU21D;54120;53.504;49.426;2022-08-03T02:30:36;25.38;51.24
67192;HTU21D;54120;53.504;49.426;2022-08-03T02:33:10;25.74;50.33
67192;HTU21D;54120;53.504;49.426;2022-08-03T02:35:38;26.27;49.21
67192;HTU21D;54120;53.504;49.426;2022-08-03T02:38:07;26.30;48.62
67192;HTU21D;54120;53.504;49.426;2022-08-03T02:40:35;25.24;51.62
67192;HTU21D;54120;53.504;49.426;2022-08-03T02:43:05;25.05;52.58
67192;HTU21D;54120;53.504;49.426;2022-08-03T02:45:34;25.19;52.17
67192;HTU21D;54120;53.504;49.426;2022-08-03T02:48:03;26.49;48.89
67192;HTU21D;54120;53.504;49.426;2022-08-03T02:50:31;28.16;45.09
67192;HTU21D;54120;53.504;49.426;2022-08-03T02:52:58;29.21;41.58
67192;HTU21D;54120;53.504;49.426;2022-08-03T02:55:26;30.09;39.56
67192;HTU21D;54120;53.504;49.426;2022-08-03T02:57:54;31.27;37.30
67192;HTU21D;54120;53.504;49.426;2022-08-03T03:00:22;32.05;35.93
67192;HTU21D;54120;53.504;49.426;2022-08-03T03:02:49;32.75;34.32
67192;HTU21D;54120;53.504;49.426;2022-08-03T03:05:16;31.86;35.85
67192;HTU21D;54120;53.504;49.426;2022-08-03T03:07:43;31.61;36.23
67192;HTU21D;54120;53.504;49.426;2022-08-03T03:10:09;30.69;38.10
67192;HTU21D;54120;53.504;49.426;2022-08-03T03:12:37;28.91;42.30
67192;HTU21D;54120;53.504;49.426;2022-08-03T03:15:07;29.13;42.68
67192;HTU21D;54120;53.504;49.426;2022-08-03T03:17:34;30.09;39.99
67192;HTU21D;54120;53.504;49.426;2022-08-03T03:20:02;30.56;38.83
67192;HTU21D;54120;53.504;49.426;2022-08-03T03:22:30;30.38;39.32
67192;HTU21D;54120;53.504;49.426;2022-08-03T03:24:58;31.49;37.19
67192;HTU21D;54120;53.504;49.426;2022-08-03T03:27:25;30.86;38.27
67192;HTU21D;54120;53.504;49.426;2022-08-03T03:29:52;31.29;38.14
67192;HTU21D;54120;53.504;49.426;2022-08-03T03:32:18;31.86;37.01
67192;HTU21D;54120;53.504;49.426;2022-08-03T03:34:44;31.85;36.70
67192;HTU21D;54120;53.504;49.426;2022-08-03T03:37:11;31.87;36.49
67192;HTU21D;54120;53.504;49.426;2022-08-03T03:39:37;32.04;36.95
67192;HTU21D;54120;53.504;49.426;2022-08-03T03:42:04;32.28;35.85
67192;HTU21D;54120;53.504;49.426;2022-08-03T03:44:30;32.49;35.66
67192;HTU21D;54120;53.504;49.426;2022-08-03T03:46:56;32.91;35.26
67192;HTU21D;54120;53.504;49.426;2022-08-03T03:49:23;32.32;36.45
67192;HTU21D;54120;53.504;49.426;2022-08-03T03:51:55;32.97;35.57
67192;HTU21D;54120;53.504;49.426;2022-08-03T03:54:22;34.08;33.02
67192;HTU21D;54120;53.504;49.426;2022-08-03T03:56:48;34.20;32.57
67192;HTU21D;54120;53.504;49.426;2022-08-03T03:59:14;34.18;32.82
67192;HTU21D;54120;53.504;49.426;2022-08-03T04:01:41;34.24;33.12
67192;HTU21D;54120;53.504;49.426;2022-08-03T04:04:07;35.25;31.07
67192;HTU21D;54120;53.504;49.426;2022-08-03T04:06:51;34.94;30.94
67192;HTU21D;54120;53.504;49.426;2022-08-03T04:09:37;33.74;33.15
67192;HTU21D;54120;53.504;49.426;2022-08-03T04:12:25;34.46;32.41
67192;HTU21D;54120;53.504;49.426;2022-08-03T04:14:55;34.65;31.84
67192;HTU21D;54120;53.504;49.426;2022-08-03T04:17:25;34.90;31.99
67192;HTU21D;54120;53.504;49.426;2022-08-03T04:19:53;33.65;34.15
67192;HTU21D;54120;53.504;49.426;2022-08-03T04:22:24;33.99;33.67
67192;HTU21D;54120;53.504;49.426;2022-08-03T04:24:55;34.46;32.60
67192;HTU21D;54120;53.504;49.426;2022-08-03T04:27:27;35.68;30.97
67192;HTU21D;54120;53.504;49.426;2022-08-03T04:29:55;36.25;29.12
67192;HTU21D;54120;53.504;49.426;2022-08-03T04:32:22;35.16;30.98
67192;HTU21D;54120;53.504;49.426;2022-08-03T04:34:51;33.94;33.59
67192;HTU21D;54120;53.504;49.426;2022-08-03T04:37:38;33.74;35.00
67192;HTU21D;54120;53.504;49.426;2022-08-03T04:40:10;34.23;33.41
67192;HTU21D;54120;53.504;49.426;2022-08-03T04:42:39;35.55;31.14
67192;HTU21D;54120;53.504;49.426;2022-08-03T04:45:12;34.22;33.28
67192;HTU21D;54120;53.504;49.426;2022-08-03T04:47:40;33.15;35.95
67192;HTU21D;54120;53.504;49.426;2022-08-03T04:50:08;32.43;37.40
67192;HTU21D;54120;53.504;49.426;2022-08-03T04:52:35;32.27;38.08
67192;HTU21D;54120;53.504;49.426;2022-08-03T04:55:01;33.82;34.95
67192;HTU21D;54120;53.504;49.426;2022-08-03T04:57:27;34.33;33.99
67192;HTU21D;54120;53.504;49.426;2022-08-03T04:59:53;34.18;34.55
67192;HTU21D;54120;53.504;49.426;2022-08-03T05:02:22;33.48;35.90
67192;HTU21D;54120;53.504;49.426;2022-08-03T05:04:48;33.63;35.76
67192;HTU21D;54120;53.504;49.426;2022-08-03T05:07:16;32.88;36.80
67192;HTU21D;54120;53.504;49.426;2022-08-03T05:09:42;31.68;39.24
67192;HTU21D;54120;53.504;49.426;2022-08-03T05:12:09;30.85;41.53
67192;HTU21D;54120;53.504;49.426;2022-08-03T05:14:37;32.46;38.02
67192;HTU21D;54120;53.504;49.426;2022-08-03T05:17:04;32.97;35.77
67192;HTU21D;54120;53.504;49.426;2022-08-03T05:19:31;32.13;37.99
67192;HTU21D;54120;53.504;49.426;2022-08-03T05:21:57;32.63;36.50
67192;HTU21D;54120;53.504;49.426;2022-08-03T05:24:23;32.26;37.93
67192;HTU21D;54120;53.504;49.426;2022-08-03T05:26:50;33.01;36.65
67192;HTU21D;54120;53.504;49.426;2022-08-03T05:29:16;32.48;36.43
67192;HTU21D;54120;53.504;49.426;2022-08-03T05:31:42;31.52;39.18
67192;HTU21D;54120;53.504;49.426;2022-08-03T05:34:08;31.86;38.01
67192;HTU21D;54120;53.504;49.426;2022-08-03T05:36:34;32.85;36.24
67192;HTU21D;54120;53.504;49.426;2022-08-03T05:39:01;33.34;35.50
67192;HTU21D;54120;53.504;49.426;2022-08-03T05:41:27;33.68;34.16
67192;HTU21D;54120;53.504;49.426;2022-08-03T05:43:54;32.88;35.38
67192;HTU21D;54120;53.504;49.426;2022-08-03T05:46:21;30.38;41.22
67192;HTU21D;54120;53.504;49.426;2022-08-03T05:48:48;28.59;45.56
67192;HTU21D;54120;53.504;49.426;2022-08-03T05:51:14;30.61;40.72
67192;HTU21D;54120;53.504;49.426;2022-08-03T05:53:41;30.27;40.31
67192;HTU21D;54120;53.504;49.426;2022-08-03T05:56:08;27.41;48.28
67192;HTU21D;54120;53.504;49.426;2022-08-03T05:58:35;27.61;47.73
67192;HTU21D;54120;53.504;49.426;2022-08-03T06:01:01;29.30;43.29
67192;HTU21D;54120;53.504;49.426;2022-08-03T06:03:27;27.70;47.83
67192;HTU21D;54120;53.504;49.426;2022-08-03T06:05:53;30.32;40.54
67192;HTU21D;54120;53.504;49.426;2022-08-03T06:08:23;32.00;37.57
67192;HTU21D;54120;53.504;49.426;2022-08-03T06:10:49;30.24;40.68
67192;HTU21D;54120;53.504;49.426;2022-08-03T06:13:15;29.28;43.15
67192;HTU21D;54120;53.504;49.426;2022-08-03T06:15:57;31.25;38.62
67192;HTU21D;54120;53.504;49.426;2022-08-03T06:18:23;32.41;36.43
67192;HTU21D;54120;53.504;49.426;2022-08-03T06:20:50;33.36;34.18
67192;HTU21D;54120;53.504;49.426;2022-08-03T06:23:16;32.91;35.37
67192;HTU21D;54120;53.504;49.426;2022-08-03T06:25:43;32.84;35.42
67192;HTU21D;54120;53.504;49.426;2022-08-03T06:28:09;32.44;36.34
67192;HTU21D;54120;53.504;49.426;2022-08-03T06:30:36;32.86;35.01
67192;HTU21D;54120;53.504;49.426;2022-08-03T06:33:02;32.55;35.56
67192;HTU21D;54120;53.504;49.426;2022-08-03T06:35:28;33.78;33.36
67192;HTU21D;54120;53.504;49.426;2022-08-03T06:37:55;32.48;36.72
67192;HTU21D;54120;53.504;49.426;2022-08-03T06:40:22;31.87;38.10
67192;HTU21D;54120;53.504;49.426;2022-08-03T06:42:57;32.57;36.34
67192;HTU21D;54120;53.504;49.426;2022-08-03T06:45:24;34.40;32.05
67192;HTU21D;54120;53.504;49.426;2022-08-03T06:48:08;33.26;34.58
67192;HTU21D;54120;53.504;49.426;2022-08-03T06:50:36;31.53;37.62
67192;HTU21D;54120;53.504;49.426;2022-08-03T06:53:03;32.58;36.30
67192;HTU21D;54120;53.504;49.426;2022-08-03T06:55:30;31.93;37.72
67192;HTU21D;54120;53.504;49.426;2022-08-03T06:57:56;33.21;34.69
67192;HTU21D;54120;53.504;49.426;2022-08-03T07:00:22;34.71;32.14
67192;HTU21D;54120;53.504;49.426;2022-08-03T07:02:49;36.62;27.93
67192;HTU21D;54120;53.504;49.426;2022-08-03T07:05:16;33.75;32.93
67192;HTU21D;54120;53.504;49.426;2022-08-03T07:07:42;33.31;33.76
67192;HTU21D;54120;53.504;49.426;2022-08-03T07:10:09;34.41;31.82
67192;HTU21D;54120;53.504;49.426;2022-08-03T07:12:39;34.31;31.72
67192;HTU21D;54120;53.504;49.426;2022-08-03T07:15:06;34.05;32.83
67192;HTU21D;54120;53.504;49.426;2022-08-03T07:17:34;34.88;29.38
67192;HTU21D;54120;53.504;49.426;2022-08-03T07:20:04;35.54;28.72
67192;HTU21D;54120;53.504;49.426;2022-08-03T07:22:31;33.88;31.72
67192;HTU21D;54120;53.504;49.426;2022-08-03T07:24:57;33.57;32.73
67192;HTU21D;54120;53.504;49.426;2022-08-03T07:27:24;32.24;35.25
67192;HTU21D;54120;53.504;49.426;2022-08-03T07:29:51;29.80;41.50
67192;HTU21D;54120;53.504;49.426;2022-08-03T07:32:17;28.84;43.70
67192;HTU21D;54120;53.504;49.426;2022-08-03T07:34:43;30.98;38.56
67192;HTU21D;54120;53.504;49.426;2022-08-03T07:37:10;30.98;38.99
67192;HTU21D;54120;53.504;49.426;2022-08-03T07:39:36;31.67;37.44
67192;HTU21D;54120;53.504;49.426;2022-08-03T07:42:02;33.30;34.50
67192;HTU21D;54120;53.504;49.426;2022-08-03T07:44:28;33.55;31.99
67192;HTU21D;54120;53.504;49.426;2022-08-03T07:46:55;31.75;36.15
67192;HTU21D;54120;53.504;49.426;2022-08-03T07:49:22;31.29;36.46
67192;HTU21D;54120;53.504;49.426;2022-08-03T07:51:48;31.23;37.04
67192;HTU21D;54120;53.504;49.426;2022-08-03T07:54:34;30.37;37.58
67192;HTU21D;54120;53.504;49.426;2022-08-03T07:57:00;28.85;41.86
67192;HTU21D;54120;53.504;49.426;2022-08-03T07:59:26;27.73;43.62
67192;HTU21D;54120;53.504;49.426;2022-08-03T08:01:53;27.72;44.22
67192;HTU21D;54120;53.504;49.426;2022-08-03T08:04:19;27.26;45.83
67192;HTU21D;54120;53.504;49.426;2022-08-03T08:06:45;27.00;45.96
67192;HTU21D;54120;53.504;49.426;2022-08-03T08:09:11;27.12;45.64
67192;HTU21D;54120;53.504;49.426;2022-08-03T08:11:37;27.43;45.99
67192;HTU21D;54120;53.504;49.426;2022-08-03T08:14:03;27.65;45.81
67192;HTU21D;54120;53.504;49.426;2022-08-03T08:16:30;27.91;43.81
67192;HTU21D;54120;53.504;49.426;2022-08-03T08:18:56;27.81;45.14
67192;HTU21D;54120;53.504;49.426;2022-08-03T08:21:22;27.88;45.32
67192;HTU21D;54120;53.504;49.426;2022-08-03T08:23:48;27.45;45.06
67192;HTU21D;54120;53.504;49.426;2022-08-03T08:26:15;27.24;46.29
67192;HTU21D;54120;53.504;49.426;2022-08-03T08:28:41;27.35;46.54
67192;HTU21D;54120;53.504;49.426;2022-08-03T08:31:07;27.75;45.45
67192;HTU21D;54120;53.504;49.426;2022-08-03T08:33:33;27.65;46.09
67192;HTU21D;54120;53.504;49.426;2022-08-03T08:36:00;28.12;45.65
67192;HTU21D;54120;53.504;49.426;2022-08-03T08:38:27;28.38;45.19
67192;HTU21D;54120;53.504;49.426;2022-08-03T08:40:56;28.00;47.55
67192;HTU21D;54120;53.504;49.426;2022-08-03T08:43:22;27.64;46.15
67192;HTU21D;54120;53.504;49.426;2022-08-03T08:45:48;27.69;46.76
67192;HTU21D;54120;53.504;49.426;2022-08-03T08:48:22;27.80;44.95
67192;HTU21D;54120;53.504;49.426;2022-08-03T08:50:56;27.29;46.02
67192;HTU21D;54120;53.504;49.426;2022-08-03T08:53:27;27.68;45.83
67192;HTU21D;54120;53.504;49.426;2022-08-03T08:55:58;28.18;46.15
67192;HTU21D;54120;53.504;49.426;2022-08-03T08:58:29;28.04;45.41
67192;HTU21D;54120;53.504;49.426;2022-08-03T09:00:55;27.98;47.05
67192;HTU21D;54120;53.504;49.426;2022-08-03T09:03:22;28.30;47.16
67192;HTU21D;54120;53.504;49.426;2022-08-03T09:05:48;27.98;45.81
67192;HTU21D;54120;53.504;49.426;2022-08-03T09:08:15;27.60;47.07
67192;HTU21D;54120;53.504;49.426;2022-08-03T09:10:41;27.64;46.78
67192;HTU21D;54120;53.504;49.426;2022-08-03T09:13:07;27.71;46.78
67192;HTU21D;54120;53.504;49.426;2022-08-03T09:15:33;27.47;45.68
67192;HTU21D;54120;53.504;49.426;2022-08-03T09:18:02;27.32;46.65
67192;HTU21D;54120;53.504;49.426;2022-08-03T09:20:31;27.02;47.17
67192;HTU21D;54120;53.504;49.426;2022-08-03T09:22:59;26.81;48.10
67192;HTU21D;54120;53.504;49.426;2022-08-03T09:28:08;26.90;48.84
67192;HTU21D;54120;53.504;49.426;2022-08-03T09:30:39;27.75;46.30
67192;HTU21D;54120;53.504;49.426;2022-08-03T09:33:10;28.05;44.97
67192;HTU21D;54120;53.504;49.426;2022-08-03T09:35:45;28.21;43.93
67192;HTU21D;54120;53.504;49.426;2022-08-03T09:38:16;28.38;43.88
67192;HTU21D;54120;53.504;49.426;2022-08-03T09:40:43;28.47;44.48
67192;HTU21D;54120;53.504;49.426;2022-08-03T09:43:10;28.00;46.33
67192;HTU21D;54120;53.504;49.426;2022-08-03T09:45:38;27.42;46.52
67192;HTU21D;54120;53.504;49.426;2022-08-03T09:48:24;27.06;47.37
67192;HTU21D;54120;53.504;49.426;2022-08-03T09:50:53;27.17;47.05
67192;HTU21D;54120;53.504;49.426;2022-08-03T09:53:21;27.43;46.59
67192;HTU21D;54120;53.504;49.426;2022-08-03T09:55:59;27.97;45.41
67192;HTU21D;54120;53.504;49.426;2022-08-03T09:58:28;28.46;43.84
67192;HTU21D;54120;53.504;49.426;2022-08-03T10:00:59;28.59;43.80
67192;HTU21D;54120;53.504;49.426;2022-08-03T10:03:28;28.48;42.99
67192;HTU21D;54120;53.504;49.426;2022-08-03T10:05:54;28.52;43.28
67192;HTU21D;54120;53.504;49.426;2022-08-03T10:08:21;28.94;42.61
67192;HTU21D;54120;53.504;49.426;2022-08-03T10:10:49;29.06;41.96
67192;HTU21D;54120;53.504;49.426;2022-08-03T10:13:17;28.43;43.48
67192;HTU21D;54120;53.504;49.426;2022-08-03T10:15:44;28.21;44.57
67192;HTU21D;54120;53.504;49.426;2022-08-03T10:18:11;28.01;45.45
67192;HTU21D;54120;53.504;49.426;2022-08-03T10:21:05;27.95;45.58
67192;HTU21D;54120;53.504;49.426;2022-08-03T10:23:36;27.98;45.54
67192;HTU21D;54120;53.504;49.426;2022-08-03T10:26:04;28.45;44.47
67192;HTU21D;54120;53.504;49.426;2022-08-03T10:28:39;29.16;42.30
67192;HTU21D;54120;53.504;49.426;2022-08-03T10:31:07;29.21;42.20
67192;HTU21D;54120;53.504;49.426;2022-08-03T10:33:45;28.68;42.67
67192;HTU21D;54120;53.504;49.426;2022-08-03T10:36:12;28.53;43.13
67192;HTU21D;54120;53.504;49.426;2022-08-03T10:38:43;28.17;44.25
67192;HTU21D;54120;53.504;49.426;2022-08-03T10:41:14;28.09;44.78
67192;HTU21D;54120;53.504;49.426;2022-08-03T10:43:55;28.21;44.25
67192;HTU21D;54120;53.504;49.426;2022-08-03T10:46:25;28.46;41.46
67192;HTU21D;54120;53.504;49.426;2022-08-03T10:48:52;28.60;40.82
67192;HTU21D;54120;53.504;49.426;2022-08-03T10:51:22;28.53;41.50
67192;HTU21D;54120;53.504;49.426;2022-08-03T10:53:48;28.99;40.47
67192;HTU21D;54120;53.504;49.426;2022-08-03T10:59:19;28.94;40.23
67192;HTU21D;54120;53.504;49.426;2022-08-03T11:02:05;29.06;40.85
67192;HTU21D;54120;53.504;49.426;2022-08-03T11:04:34;29.03;41.28
67192;HTU21D;54120;53.504;49.426;2022-08-03T11:09:44;29.38;41.37
67192;HTU21D;54120;53.504;49.426;2022-08-03T11:12:26;29.11;40.72
67192;HTU21D;54120;53.504;49.426;2022-08-03T11:14:54;28.76;42.00
67192;HTU21D;54120;53.504;49.426;2022-08-03T11:17:21;29.17;41.00
67192;HTU21D;54120;53.504;49.426;2022-08-03T11:19:49;29.31;41.50
67192;HTU21D;54120;53.504;49.426;2022-08-03T11:22:16;28.95;42.26
67192;HTU21D;54120;53.504;49.426;2022-08-03T11:30:09;28.39;42.90
67192;HTU21D;54120;53.504;49.426;2022-08-03T11:35:34;28.21;42.97
67192;HTU21D;54120;53.504;49.426;2022-08-03T11:38:20;28.29;42.94
67192;HTU21D;54120;53.504;49.426;2022-08-03T11:40:51;28.18;43.42
67192;HTU21D;54120;53.504;49.426;2022-08-03T11:48:26;28.10;42.45
67192;HTU21D;54120;53.504;49.426;2022-08-03T11:50:53;28.50;42.54
67192;HTU21D;54120;53.504;49.426;2022-08-03T11:53:20;28.83;41.27
67192;HTU21D;54120;53.504;49.426;2022-08-03T11:55:47;29.24;40.27
67192;HTU21D;54120;53.504;49.426;2022-08-03T11:58:16;29.82;38.20
67192;HTU21D;54120;53.504;49.426;2022-08-03T12:00:42;29.86;38.13
67192;HTU21D;54120;53.504;49.426;2022-08-03T12:03:11;29.95;38.58
67192;HTU21D;54120;53.504;49.426;2022-08-03T12:08:10;28.83;39.81
67192;HTU21D;54120;53.504;49.426;2022-08-03T12:10:37;28.43;41.68
67192;HTU21D;54120;53.504;49.426;2022-08-03T12:13:04;28.33;41.55
67192;HTU21D;54120;53.504;49.426;2022-08-03T12:15:34;28.27;41.94
67192;HTU21D;54120;53.504;49.426;2022-08-03T12:18:12;28.03;42.35
67192;HTU21D;54120;53.504;49.426;2022-08-03T12:20:39;28.06;42.26
67192;HTU21D;54120;53.504;49.426;2022-08-03T12:23:06;28.17;41.76
67192;HTU21D;54120;53.504;49.426;2022-08-03T12:25:33;28.12;42.59
67192;HTU21D;54120;53.504;49.426;2022-08-03T12:28:17;28.31;42.07
67192;HTU21D;54120;53.504;49.426;2022-08-03T12:30:48;28.69;41.47
67192;HTU21D;54120;53.504;49.426;2022-08-03T12:33:19;29.43;40.49
67192;HTU21D;54120;53.504;49.426;2022-08-03T12:35:59;29.87;39.39
67192;HTU21D;54120;53.504;49.426;2022-08-03T12:38:27;30.08;38.33
67192;HTU21D;54120;53.504;49.426;2022-08-03T12:41:07;29.68;38.23
67192;HTU21D;54120;53.504;49.426;2022-08-03T12:43:47;29.34;39.33
67192;HTU21D;54120;53.504;49.426;2022-08-03T12:46:16;29.49;39.00
67192;HTU21D;54120;53.504;49.426;2022-08-03T12:49:16;29.67;39.03
67192;HTU21D;54120;53.504;49.426;2022-08-03T12:54:20;29.24;40.07
67192;HTU21D;54120;53.504;49.426;2022-08-03T12:57:01;28.69;42.21
67192;HTU21D;54120;53.504;49.426;2022-08-03T12:59:35;28.46;42.12
67192;HTU21D;54120;53.504;49.426;2022-08-03T13:02:03;28.05;43.71
67192;HTU21D;54120;53.504;49.426;2022-08-03T13:04:33;27.84;44.10
67192;HTU21D;54120;53.504;49.426;2022-08-03T13:07:07;27.68;45.24
67192;HTU21D;54120;53.504;49.426;2022-08-03T13:09:47;27.64;46.90
67192;HTU21D;54120;53.504;49.426;2022-08-03T13:12:19;27.55;47.41
67192;HTU21D;54120;53.504;49.426;2022-08-03T13:14:48;27.61;47.72
67192;HTU21D;54120;53.504;49.426;2022-08-03T13:17:15;27.83;47.94
67192;HTU21D;54120;53.504;49.426;2022-08-03T13:19:44;28.00;46.86
67192;HTU21D;54120;53.504;49.426;2022-08-03T13:22:22;28.24;45.72
67192;HTU21D;54120;53.504;49.426;2022-08-03T13:24:51;28.38;44.57
67192;HTU21D;54120;53.504;49.426;2022-08-03T13:27:17;28.45;45.07
67192;HTU21D;54120;53.504;49.426;2022-08-03T13:29:44;28.46;43.91
67192;HTU21D;54120;53.504;49.426;2022-08-03T13:32:10;28.65;43.22
67192;HTU21D;54120;53.504;49.426;2022-08-03T13:34:36;28.65;43.64
67192;HTU21D;54120;53.504;49.426;2022-08-03T13:37:03;28.53;44.14
67192;HTU21D;54120;53.504;49.426;2022-08-03T13:39:29;28.62;42.80
67192;HTU21D;54120;53.504;49.426;2022-08-03T13:41:55;28.97;41.97
67192;HTU21D;54120;53.504;49.426;2022-08-03T13:44:21;28.98;43.34
67192;HTU21D;54120;53.504;49.426;2022-08-03T13:46:47;28.71;43.17
67192;HTU21D;54120;53.504;49.426;2022-08-03T13:49:14;28.71;44.01
67192;HTU21D;54120;53.504;49.426;2022-08-03T13:51:40;28.68;41.66
67192;HTU21D;54120;53.504;49.426;2022-08-03T13:54:07;28.16;42.83
67192;HTU21D;54120;53.504;49.426;2022-08-03T13:56:33;28.01;43.94
67192;HTU21D;54120;53.504;49.426;2022-08-03T13:58:59;28.10;43.63
67192;HTU21D;54120;53.504;49.426;2022-08-03T14:01:25;27.97;44.67
67192;HTU21D;54120;53.504;49.426;2022-08-03T14:03:52;27.88;44.83
67192;HTU21D;54120;53.504;49.426;2022-08-03T14:06:20;27.91;44.72
67192;HTU21D;54120;53.504;49.426;2022-08-03T14:08:46;27.99;43.41
67192;HTU21D;54120;53.504;49.426;2022-08-03T14:11:15;28.06;42.92
67192;HTU21D;54120;53.504;49.426;2022-08-03T14:13:42;28.12;42.90
67192;HTU21D;54120;53.504;49.426;2022-08-03T14:16:09;28.15;43.32
67192;HTU21D;54120;53.504;49.426;2022-08-03T14:18:35;28.17;43.84
67192;HTU21D;54120;53.504;49.426;2022-08-03T14:21:04;28.18;43.75
67192;HTU21D;54120;53.504;49.426;2022-08-03T14:23:30;28.15;43.56
67192;HTU21D;54120;53.504;49.426;2022-08-03T14:25:57;28.12;43.48
67192;HTU21D;54120;53.504;49.426;2022-08-03T14:28:23;28.05;43.47
67192;HTU21D;54120;53.504;49.426;2022-08-03T14:30:53;28.18;43.14
67192;HTU21D;54120;53.504;49.426;2022-08-03T14:33:21;28.34;43.47
67192;HTU21D;54120;53.504;49.426;2022-08-03T14:35:48;28.41;43.76
67192;HTU21D;54120;53.504;49.426;2022-08-03T14:38:14;28.39;43.96
67192;HTU21D;54120;53.504;49.426;2022-08-03T14:40:41;28.29;44.04
67192;HTU21D;54120;53.504;49.426;2022-08-03T14:43:07;28.17;44.56
67192;HTU21D;54120;53.504;49.426;2022-08-03T14:45:33;28.02;45.28
67192;HTU21D;54120;53.504;49.426;2022-08-03T14:48:00;28.00;44.61
67192;HTU21D;54120;53.504;49.426;2022-08-03T14:50:26;27.97;44.82
67192;HTU21D;54120;53.504;49.426;2022-08-03T14:52:55;27.93;44.32
67192;HTU21D;54120;53.504;49.426;2022-08-03T14:55:22;27.86;44.26
67192;HTU21D;54120;53.504;49.426;2022-08-03T14:57:48;27.83;44.11
67192;HTU21D;54120;53.504;49.426;2022-08-03T15:00:14;27.80;44.32
67192;HTU21D;54120;53.504;49.426;2022-08-03T15:02:41;27.81;44.82
67192;HTU21D;54120;53.504;49.426;2022-08-03T15:05:08;27.80;44.44
67192;HTU21D;54120;53.504;49.426;2022-08-03T15:07:35;27.78;44.87
67192;HTU21D;54120;53.504;49.426;2022-08-03T15:10:01;27.76;44.76
67192;HTU21D;54120;53.504;49.426;2022-08-03T15:12:29;27.79;44.83
67192;HTU21D;54120;53.504;49.426;2022-08-03T15:14:55;27.83;44.76
67192;HTU21D;54120;53.504;49.426;2022-08-03T15:17:22;27.84;44.54
67192;HTU21D;54120;53.504;49.426;2022-08-03T15:19:48;27.78;44.36
67192;HTU21D;54120;53.504;49.426;2022-08-03T15:22:14;27.64;45.24
67192;HTU21D;54120;53.504;49.426;2022-08-03T15:24:42;27.60;45.51
67192;HTU21D;54120;53.504;49.426;2022-08-03T15:27:08;27.54;45.90
67192;HTU21D;54120;53.504;49.426;2022-08-03T15:29:34;27.49;46.47
67192;HTU21D;54120;53.504;49.426;2022-08-03T15:32:00;27.39;47.01
67192;HTU21D;54120;53.504;49.426;2022-08-03T15:34:26;27.36;47.14
67192;HTU21D;54120;53.504;49.426;2022-08-03T15:36:52;27.30;47.61
67192;HTU21D;54120;53.504;49.426;2022-08-03T15:39:19;27.24;47.98
67192;HTU21D;54120;53.504;49.426;2022-08-03T15:41:45;27.22;48.16
67192;HTU21D;54120;53.504;49.426;2022-08-03T15:44:11;27.10;48.23
67192;HTU21D;54120;53.504;49.426;2022-08-03T15:46:37;27.01;48.44